CheckWX is a tool to help pilots better visualize weather data.  It is not intended as a substitute for an official pre-flight weather briefing.

07:19:42 UTC

SBEG TAF
Eduardo Gomes International Airport
Manaus, Brazil
TAF SBEG 190300Z 1906/2006 30003KT 9999 FEW025 TN24/1910Z TX32/1918Z BECMG 1912/1914 06007KT SCT020 FEW025TCU PROB40 1918/1923 TS FEW020 FEW025CB BECMG 1922/1924 00000KT RMK PGU

Jun-19@
06:00 UTC

Jun-19 @ 06:00 UTC

Jun-19@
12:00 UTC

Jun-19 @ 12:00 UTC

TAF SBEG 190300Z 1906/2006 30003KT 9999 FEW025 TN24/1910Z TX32/1918Z
Wind
  • 300° at 3 KTS
Cloud Levels
  • Few at 2,500' AGL

Jun-19@
12:00 UTC

Jun-19 @ 12:00 UTC

Jun-19@
22:00 UTC

Jun-19 @ 22:00 UTC

BECMG 1912/1914 06007KT SCT020 FEW025TCU

Becoming

Becoming Conditions expected by Wed, Jun 19, 2019 @ 14:00 UTC

Wind
  • 060° at 7 KTS
Cloud Levels
  • Scattered at 2,000' AGL
  • Few at 2,500' AGL

Jun-19@
18:00 UTC

Jun-19 @ 18:00 UTC

Jun-19@
23:00 UTC

Jun-19 @ 23:00 UTC

PROB40 1918/1923 TS FEW020 FEW025CB

Probable - 40% Likelihood

Probable - 40% Likelihood during this time.

Conditions
Thunderstorm
Cloud Levels
  • Few at 2,000' AGL
  • Few at 2,500' AGL

Jun-19@
22:00 UTC

Jun-19 @ 22:00 UTC

Jun-20@
06:00 UTC

Jun-20 @ 06:00 UTC

BECMG 1922/1924 00000KT RMK PGU

Becoming

Becoming Conditions expected by Thu, Jun 20, 2019 @ 00:00 UTC

Cloud Levels
  • Scattered at 2,000' AGL
  • Few at 2,500' AGL